sensor_id;sensor_type;location;lat;lon;timestamp;P1;durP1;ratioP1;P2;durP2;ratioP2
19883;SDS011;10104;50.732;10.174;2024-02-16T00:02:32;4.83;;;2.80;;
19883;SDS011;10104;50.732;10.174;2024-02-16T00:05:12;6.50;;;3.77;;
19883;SDS011;10104;50.732;10.174;2024-02-16T00:07:53;7.40;;;5.00;;
19883;SDS011;10104;50.732;10.174;2024-02-16T00:10:33;6.67;;;3.23;;
19883;SDS011;10104;50.732;10.174;2024-02-16T00:13:14;6.13;;;3.10;;
19883;SDS011;10104;50.732;10.174;2024-02-16T00:15:54;6.83;;;3.30;;
19883;SDS011;10104;50.732;10.174;2024-02-16T00:18:34;5.60;;;3.03;;
19883;SDS011;10104;50.732;10.174;2024-02-16T00:21:15;5.03;;;3.40;;
19883;SDS011;10104;50.732;10.174;2024-02-16T00:23:57;6.50;;;3.07;;
19883;SDS011;10104;50.732;10.174;2024-02-16T00:26:37;7.23;;;3.07;;
19883;SDS011;10104;50.732;10.174;2024-02-16T00:29:19;6.70;;;3.00;;
19883;SDS011;10104;50.732;10.174;2024-02-16T00:31:59;8.30;;;3.60;;
19883;SDS011;10104;50.732;10.174;2024-02-16T00:34:39;9.57;;;3.20;;
19883;SDS011;10104;50.732;10.174;2024-02-16T00:37:21;6.60;;;3.50;;
19883;SDS011;10104;50.732;10.174;2024-02-16T00:40:02;6.57;;;3.53;;
19883;SDS011;10104;50.732;10.174;2024-02-16T00:42:42;4.47;;;3.23;;
19883;SDS011;10104;50.732;10.174;2024-02-16T00:45:22;5.63;;;3.30;;
19883;SDS011;10104;50.732;10.174;2024-02-16T00:48:02;5.63;;;3.30;;
19883;SDS011;10104;50.732;10.174;2024-02-16T00:50:43;4.93;;;3.40;;
19883;SDS011;10104;50.732;10.174;2024-02-16T00:53:24;8.40;;;4.27;;
19883;SDS011;10104;50.732;10.174;2024-02-16T00:56:05;5.33;;;3.57;;
19883;SDS011;10104;50.732;10.174;2024-02-16T00:58:46;6.93;;;3.67;;
19883;SDS011;10104;50.732;10.174;2024-02-16T01:01:26;7.53;;;3.73;;
19883;SDS011;10104;50.732;10.174;2024-02-16T01:04:07;5.20;;;3.67;;
19883;SDS011;10104;50.732;10.174;2024-02-16T01:06:48;5.23;;;4.10;;
19883;SDS011;10104;50.732;10.174;2024-02-16T01:09:28;6.57;;;3.90;;
19883;SDS011;10104;50.732;10.174;2024-02-16T01:12:08;4.90;;;4.03;;
19883;SDS011;10104;50.732;10.174;2024-02-16T01:14:49;5.10;;;3.90;;
19883;SDS011;10104;50.732;10.174;2024-02-16T01:17:29;8.20;;;4.73;;
19883;SDS011;10104;50.732;10.174;2024-02-16T01:20:10;8.97;;;4.47;;
19883;SDS011;10104;50.732;10.174;2024-02-16T01:22:51;6.33;;;4.63;;
19883;SDS011;10104;50.732;10.174;2024-02-16T01:25:32;5.77;;;4.20;;
19883;SDS011;10104;50.732;10.174;2024-02-16T01:28:12;6.20;;;4.73;;
19883;SDS011;10104;50.732;10.174;2024-02-16T01:30:52;9.03;;;4.90;;
19883;SDS011;10104;50.732;10.174;2024-02-16T01:33:33;8.30;;;4.73;;
19883;SDS011;10104;50.732;10.174;2024-02-16T01:36:15;10.30;;;4.90;;
19883;SDS011;10104;50.732;10.174;2024-02-16T01:38:55;8.07;;;5.00;;
19883;SDS011;10104;50.732;10.174;2024-02-16T01:41:38;7.10;;;5.00;;
19883;SDS011;10104;50.732;10.174;2024-02-16T01:44:19;9.37;;;5.47;;
19883;SDS011;10104;50.732;10.174;2024-02-16T01:46:59;7.87;;;4.63;;
19883;SDS011;10104;50.732;10.174;2024-02-16T01:49:41;7.90;;;5.00;;
19883;SDS011;10104;50.732;10.174;2024-02-16T01:52:22;12.90;;;5.13;;
19883;SDS011;10104;50.732;10.174;2024-02-16T01:55:05;8.80;;;4.80;;
19883;SDS011;10104;50.732;10.174;2024-02-16T01:57:49;13.40;;;5.97;;
19883;SDS011;10104;50.732;10.174;2024-02-16T02:00:29;9.87;;;5.30;;
19883;SDS011;10104;50.732;10.174;2024-02-16T02:03:09;7.10;;;4.77;;
19883;SDS011;10104;50.732;10.174;2024-02-16T02:05:50;9.57;;;5.50;;
19883;SDS011;10104;50.732;10.174;2024-02-16T02:08:34;5.90;;;4.67;;
19883;SDS011;10104;50.732;10.174;2024-02-16T02:11:14;8.73;;;5.40;;
19883;SDS011;10104;50.732;10.174;2024-02-16T02:13:55;6.53;;;5.30;;
19883;SDS011;10104;50.732;10.174;2024-02-16T02:16:35;10.53;;;5.33;;
19883;SDS011;10104;50.732;10.174;2024-02-16T02:19:30;7.97;;;5.37;;
19883;SDS011;10104;50.732;10.174;2024-02-16T02:22:14;8.13;;;5.47;;
19883;SDS011;10104;50.732;10.174;2024-02-16T02:24:57;7.87;;;5.40;;
19883;SDS011;10104;50.732;10.174;2024-02-16T02:27:38;8.07;;;5.47;;
19883;SDS011;10104;50.732;10.174;2024-02-16T02:30:18;8.20;;;5.50;;
19883;SDS011;10104;50.732;10.174;2024-02-16T02:33:01;9.33;;;5.70;;
19883;SDS011;10104;50.732;10.174;2024-02-16T02:35:41;10.23;;;5.80;;
19883;SDS011;10104;50.732;10.174;2024-02-16T02:38:22;9.10;;;5.83;;
19883;SDS011;10104;50.732;10.174;2024-02-16T02:41:02;8.00;;;5.60;;
19883;SDS011;10104;50.732;10.174;2024-02-16T02:43:47;7.20;;;5.23;;
19883;SDS011;10104;50.732;10.174;2024-02-16T02:46:27;8.93;;;6.30;;
19883;SDS011;10104;50.732;10.174;2024-02-16T02:49:07;9.60;;;6.37;;
19883;SDS011;10104;50.732;10.174;2024-02-16T02:51:48;8.57;;;6.00;;
19883;SDS011;10104;50.732;10.174;2024-02-16T02:54:29;7.87;;;5.37;;
19883;SDS011;10104;50.732;10.174;2024-02-16T02:57:09;12.13;;;6.43;;
19883;SDS011;10104;50.732;10.174;2024-02-16T02:59:49;6.97;;;5.40;;
19883;SDS011;10104;50.732;10.174;2024-02-16T03:02:30;8.60;;;5.57;;
19883;SDS011;10104;50.732;10.174;2024-02-16T03:05:11;9.07;;;5.50;;
19883;SDS011;10104;50.732;10.174;2024-02-16T03:07:51;7.07;;;5.67;;
19883;SDS011;10104;50.732;10.174;2024-02-16T03:10:31;9.67;;;6.03;;
19883;SDS011;10104;50.732;10.174;2024-02-16T03:13:15;9.40;;;6.00;;
19883;SDS011;10104;50.732;10.174;2024-02-16T03:15:57;11.77;;;5.50;;
19883;SDS011;10104;50.732;10.174;2024-02-16T03:18:38;7.87;;;5.63;;
19883;SDS011;10104;50.732;10.174;2024-02-16T03:21:19;8.40;;;5.90;;
19883;SDS011;10104;50.732;10.174;2024-02-16T03:24:01;8.63;;;5.80;;
19883;SDS011;10104;50.732;10.174;2024-02-16T03:26:44;10.23;;;5.73;;
19883;SDS011;10104;50.732;10.174;2024-02-16T03:29:24;7.80;;;5.77;;
19883;SDS011;10104;50.732;10.174;2024-02-16T03:32:04;7.70;;;5.57;;
19883;SDS011;10104;50.732;10.174;2024-02-16T03:34:44;6.97;;;5.40;;
19883;SDS011;10104;50.732;10.174;2024-02-16T03:37:25;7.50;;;5.23;;
19883;SDS011;10104;50.732;10.174;2024-02-16T03:40:05;9.43;;;6.30;;
19883;SDS011;10104;50.732;10.174;2024-02-16T03:42:47;7.80;;;5.70;;
19883;SDS011;10104;50.732;10.174;2024-02-16T03:45:28;8.87;;;5.87;;
19883;SDS011;10104;50.732;10.174;2024-02-16T03:48:09;10.07;;;6.47;;
19883;SDS011;10104;50.732;10.174;2024-02-16T03:50:50;9.20;;;6.00;;
19883;SDS011;10104;50.732;10.174;2024-02-16T03:53:30;11.73;;;6.20;;
19883;SDS011;10104;50.732;10.174;2024-02-16T03:56:10;7.67;;;5.50;;
19883;SDS011;10104;50.732;10.174;2024-02-16T03:58:52;9.37;;;5.60;;
19883;SDS011;10104;50.732;10.174;2024-02-16T04:01:32;9.70;;;5.77;;
19883;SDS011;10104;50.732;10.174;2024-02-16T04:04:12;7.63;;;5.63;;
19883;SDS011;10104;50.732;10.174;2024-02-16T04:06:53;7.60;;;5.73;;
19883;SDS011;10104;50.732;10.174;2024-02-16T04:09:33;7.50;;;5.20;;
19883;SDS011;10104;50.732;10.174;2024-02-16T04:12:14;10.60;;;6.10;;
19883;SDS011;10104;50.732;10.174;2024-02-16T04:14:54;8.57;;;5.90;;
19883;SDS011;10104;50.732;10.174;2024-02-16T04:17:34;9.40;;;6.23;;
19883;SDS011;10104;50.732;10.174;2024-02-16T04:20:18;11.07;;;5.97;;
19883;SDS011;10104;50.732;10.174;2024-02-16T04:22:59;9.77;;;5.83;;
19883;SDS011;10104;50.732;10.174;2024-02-16T04:25:40;9.97;;;6.37;;
19883;SDS011;10104;50.732;10.174;2024-02-16T04:28:20;9.63;;;6.03;;
19883;SDS011;10104;50.732;10.174;2024-02-16T04:31:00;8.37;;;5.93;;
19883;SDS011;10104;50.732;10.174;2024-02-16T04:33:40;9.00;;;6.10;;
19883;SDS011;10104;50.732;10.174;2024-02-16T04:36:21;10.07;;;6.10;;
19883;SDS011;10104;50.732;10.174;2024-02-16T04:39:01;7.73;;;5.30;;
19883;SDS011;10104;50.732;10.174;2024-02-16T04:41:41;9.90;;;5.80;;
19883;SDS011;10104;50.732;10.174;2024-02-16T04:44:21;8.63;;;6.30;;
19883;SDS011;10104;50.732;10.174;2024-02-16T04:47:02;7.23;;;5.83;;
19883;SDS011;10104;50.732;10.174;2024-02-16T04:49:43;10.47;;;6.00;;
19883;SDS011;10104;50.732;10.174;2024-02-16T04:52:23;10.07;;;6.10;;
19883;SDS011;10104;50.732;10.174;2024-02-16T04:55:08;8.50;;;5.63;;
19883;SDS011;10104;50.732;10.174;2024-02-16T04:57:48;11.20;;;5.97;;
19883;SDS011;10104;50.732;10.174;2024-02-16T05:00:28;8.70;;;5.07;;
19883;SDS011;10104;50.732;10.174;2024-02-16T05:03:08;10.27;;;6.00;;
19883;SDS011;10104;50.732;10.174;2024-02-16T05:05:49;7.77;;;5.90;;
19883;SDS011;10104;50.732;10.174;2024-02-16T05:08:29;6.67;;;5.87;;
19883;SDS011;10104;50.732;10.174;2024-02-16T05:11:10;10.47;;;5.93;;
19883;SDS011;10104;50.732;10.174;2024-02-16T05:13:50;8.67;;;6.10;;
19883;SDS011;10104;50.732;10.174;2024-02-16T05:16:30;10.60;;;6.37;;
19883;SDS011;10104;50.732;10.174;2024-02-16T05:19:11;8.30;;;6.43;;
19883;SDS011;10104;50.732;10.174;2024-02-16T05:21:52;7.57;;;5.67;;
19883;SDS011;10104;50.732;10.174;2024-02-16T05:24:32;8.80;;;5.70;;
19883;SDS011;10104;50.732;10.174;2024-02-16T05:27:13;9.80;;;6.67;;
19883;SDS011;10104;50.732;10.174;2024-02-16T05:29:54;8.47;;;6.37;;
19883;SDS011;10104;50.732;10.174;2024-02-16T05:32:37;10.50;;;6.83;;
19883;SDS011;10104;50.732;10.174;2024-02-16T05:35:17;8.33;;;6.80;;
19883;SDS011;10104;50.732;10.174;2024-02-16T05:37:57;9.50;;;6.43;;
19883;SDS011;10104;50.732;10.174;2024-02-16T05:40:38;11.83;;;6.73;;
19883;SDS011;10104;50.732;10.174;2024-02-16T05:43:34;9.70;;;6.50;;
19883;SDS011;10104;50.732;10.174;2024-02-16T05:46:15;7.03;;;5.53;;
19883;SDS011;10104;50.732;10.174;2024-02-16T05:48:56;6.73;;;5.53;;
19883;SDS011;10104;50.732;10.174;2024-02-16T05:51:37;11.30;;;6.87;;
19883;SDS011;10104;50.732;10.174;2024-02-16T05:54:19;8.97;;;6.30;;
19883;SDS011;10104;50.732;10.174;2024-02-16T05:56:59;10.27;;;6.67;;
19883;SDS011;10104;50.732;10.174;2024-02-16T05:59:39;10.30;;;6.10;;
19883;SDS011;10104;50.732;10.174;2024-02-16T06:02:21;9.70;;;6.30;;
19883;SDS011;10104;50.732;10.174;2024-02-16T06:05:05;8.93;;;7.00;;
19883;SDS011;10104;50.732;10.174;2024-02-16T06:07:45;7.60;;;5.97;;
19883;SDS011;10104;50.732;10.174;2024-02-16T06:10:25;9.03;;;6.23;;
19883;SDS011;10104;50.732;10.174;2024-02-16T06:13:05;7.47;;;5.67;;
19883;SDS011;10104;50.732;10.174;2024-02-16T06:15:46;6.27;;;5.27;;
19883;SDS011;10104;50.732;10.174;2024-02-16T06:18:27;6.20;;;5.23;;
19883;SDS011;10104;50.732;10.174;2024-02-16T06:21:09;8.80;;;5.70;;
19883;SDS011;10104;50.732;10.174;2024-02-16T06:23:49;7.43;;;5.50;;
19883;SDS011;10104;50.732;10.174;2024-02-16T06:26:30;8.50;;;5.73;;
19883;SDS011;10104;50.732;10.174;2024-02-16T06:29:10;9.53;;;6.23;;
19883;SDS011;10104;50.732;10.174;2024-02-16T06:31:50;10.43;;;6.47;;
19883;SDS011;10104;50.732;10.174;2024-02-16T06:34:31;9.83;;;6.60;;
19883;SDS011;10104;50.732;10.174;2024-02-16T06:37:12;10.80;;;6.47;;
19883;SDS011;10104;50.732;10.174;2024-02-16T06:39:52;8.63;;;6.57;;
19883;SDS011;10104;50.732;10.174;2024-02-16T06:42:32;12.50;;;6.80;;
19883;SDS011;10104;50.732;10.174;2024-02-16T06:45:14;8.90;;;6.47;;
19883;SDS011;10104;50.732;10.174;2024-02-16T06:47:54;8.40;;;6.00;;
19883;SDS011;10104;50.732;10.174;2024-02-16T06:50:36;7.20;;;5.73;;
19883;SDS011;10104;50.732;10.174;2024-02-16T06:53:16;9.70;;;6.30;;
19883;SDS011;10104;50.732;10.174;2024-02-16T06:55:57;7.97;;;5.50;;
19883;SDS011;10104;50.732;10.174;2024-02-16T06:58:37;7.73;;;5.43;;
19883;SDS011;10104;50.732;10.174;2024-02-16T07:01:17;7.00;;;4.80;;
19883;SDS011;10104;50.732;10.174;2024-02-16T07:04:00;7.93;;;4.67;;
19883;SDS011;10104;50.732;10.174;2024-02-16T07:06:42;7.50;;;4.50;;
19883;SDS011;10104;50.732;10.174;2024-02-16T07:09:22;8.07;;;5.40;;
19883;SDS011;10104;50.732;10.174;2024-02-16T07:12:02;6.27;;;4.97;;
19883;SDS011;10104;50.732;10.174;2024-02-16T07:14:43;7.57;;;4.33;;
19883;SDS011;10104;50.732;10.174;2024-02-16T07:17:23;8.27;;;5.33;;
19883;SDS011;10104;50.732;10.174;2024-02-16T07:20:04;8.03;;;5.23;;
19883;SDS011;10104;50.732;10.174;2024-02-16T07:22:44;6.20;;;5.07;;
19883;SDS011;10104;50.732;10.174;2024-02-16T07:25:27;6.67;;;4.77;;
19883;SDS011;10104;50.732;10.174;2024-02-16T07:28:08;10.03;;;5.20;;
19883;SDS011;10104;50.732;10.174;2024-02-16T07:30:48;6.80;;;4.70;;
19883;SDS011;10104;50.732;10.174;2024-02-16T07:33:29;8.37;;;5.57;;
19883;SDS011;10104;50.732;10.174;2024-02-16T07:36:10;6.60;;;4.97;;
19883;SDS011;10104;50.732;10.174;2024-02-16T07:38:50;6.40;;;5.27;;
19883;SDS011;10104;50.732;10.174;2024-02-16T07:41:30;6.93;;;5.23;;
19883;SDS011;10104;50.732;10.174;2024-02-16T07:44:11;9.83;;;5.27;;
19883;SDS011;10104;50.732;10.174;2024-02-16T07:46:51;9.20;;;5.63;;
19883;SDS011;10104;50.732;10.174;2024-02-16T07:49:32;6.57;;;5.10;;
19883;SDS011;10104;50.732;10.174;2024-02-16T07:52:12;6.90;;;4.77;;
19883;SDS011;10104;50.732;10.174;2024-02-16T07:54:52;6.63;;;4.83;;
19883;SDS011;10104;50.732;10.174;2024-02-16T07:57:32;7.13;;;4.67;;
19883;SDS011;10104;50.732;10.174;2024-02-16T08:00:12;6.27;;;4.80;;
19883;SDS011;10104;50.732;10.174;2024-02-16T08:02:55;7.23;;;5.10;;
19883;SDS011;10104;50.732;10.174;2024-02-16T08:05:36;6.33;;;4.43;;
19883;SDS011;10104;50.732;10.174;2024-02-16T08:08:16;6.77;;;4.80;;
19883;SDS011;10104;50.732;10.174;2024-02-16T08:10:56;5.50;;;4.67;;
19883;SDS011;10104;50.732;10.174;2024-02-16T08:13:36;9.13;;;4.77;;
19883;SDS011;10104;50.732;10.174;2024-02-16T08:16:16;9.33;;;4.70;;
19883;SDS011;10104;50.732;10.174;2024-02-16T08:18:57;8.13;;;5.73;;
19883;SDS011;10104;50.732;10.174;2024-02-16T08:21:37;7.00;;;5.50;;
19883;SDS011;10104;50.732;10.174;2024-02-16T08:24:18;5.97;;;4.77;;
19883;SDS011;10104;50.732;10.174;2024-02-16T08:26:58;6.07;;;4.40;;
19883;SDS011;10104;50.732;10.174;2024-02-16T08:29:38;6.57;;;4.67;;
19883;SDS011;10104;50.732;10.174;2024-02-16T08:32:18;7.97;;;4.67;;
19883;SDS011;10104;50.732;10.174;2024-02-16T08:35:00;5.77;;;4.27;;
19883;SDS011;10104;50.732;10.174;2024-02-16T08:37:40;6.13;;;4.37;;
19883;SDS011;10104;50.732;10.174;2024-02-16T08:40:21;5.47;;;4.00;;
19883;SDS011;10104;50.732;10.174;2024-02-16T08:43:01;7.47;;;4.73;;
19883;SDS011;10104;50.732;10.174;2024-02-16T08:45:43;5.83;;;4.43;;
19883;SDS011;10104;50.732;10.174;2024-02-16T08:48:24;5.67;;;4.63;;
19883;SDS011;10104;50.732;10.174;2024-02-16T08:51:05;6.87;;;4.73;;
19883;SDS011;10104;50.732;10.174;2024-02-16T08:53:46;4.77;;;3.73;;
19883;SDS011;10104;50.732;10.174;2024-02-16T08:56:29;6.67;;;4.40;;
19883;SDS011;10104;50.732;10.174;2024-02-16T08:59:09;6.17;;;4.33;;
19883;SDS011;10104;50.732;10.174;2024-02-16T09:01:49;6.27;;;3.43;;
19883;SDS011;10104;50.732;10.174;2024-02-16T09:04:29;5.40;;;3.73;;
19883;SDS011;10104;50.732;10.174;2024-02-16T09:07:10;4.50;;;3.80;;
19883;SDS011;10104;50.732;10.174;2024-02-16T09:09:51;6.53;;;4.10;;
19883;SDS011;10104;50.732;10.174;2024-02-16T09:12:32;6.20;;;3.40;;
19883;SDS011;10104;50.732;10.174;2024-02-16T09:15:13;6.00;;;3.87;;
19883;SDS011;10104;50.732;10.174;2024-02-16T09:17:53;5.33;;;3.63;;
19883;SDS011;10104;50.732;10.174;2024-02-16T09:20:33;5.33;;;3.67;;
19883;SDS011;10104;50.732;10.174;2024-02-16T09:23:14;5.33;;;3.87;;
19883;SDS011;10104;50.732;10.174;2024-02-16T09:25:54;5.67;;;3.47;;
19883;SDS011;10104;50.732;10.174;2024-02-16T09:28:38;5.57;;;3.47;;
19883;SDS011;10104;50.732;10.174;2024-02-16T09:31:20;6.07;;;3.10;;
19883;SDS011;10104;50.732;10.174;2024-02-16T09:34:01;4.93;;;3.55;;
19883;SDS011;10104;50.732;10.174;2024-02-16T09:36:43;5.00;;;3.60;;
19883;SDS011;10104;50.732;10.174;2024-02-16T09:39:23;3.53;;;3.10;;
19883;SDS011;10104;50.732;10.174;2024-02-16T09:42:04;4.38;;;3.13;;
19883;SDS011;10104;50.732;10.174;2024-02-16T09:44:44;4.30;;;3.05;;
19883;SDS011;10104;50.732;10.174;2024-02-16T09:47:25;3.92;;;3.40;;
19883;SDS011;10104;50.732;10.174;2024-02-16T09:50:09;4.80;;;3.53;;
19883;SDS011;10104;50.732;10.174;2024-02-16T09:52:50;4.85;;;3.42;;
19883;SDS011;10104;50.732;10.174;2024-02-16T09:55:31;4.50;;;3.60;;
19883;SDS011;10104;50.732;10.174;2024-02-16T09:58:13;5.85;;;2.95;;
19883;SDS011;10104;50.732;10.174;2024-02-16T10:00:57;6.10;;;3.00;;
19883;SDS011;10104;50.732;10.174;2024-02-16T10:03:38;4.00;;;3.05;;
19883;SDS011;10104;50.732;10.174;2024-02-16T10:06:23;5.05;;;2.88;;
19883;SDS011;10104;50.732;10.174;2024-02-16T10:09:03;4.45;;;3.10;;
19883;SDS011;10104;50.732;10.174;2024-02-16T10:11:46;4.57;;;2.78;;
19883;SDS011;10104;50.732;10.174;2024-02-16T10:14:27;5.60;;;3.28;;
19883;SDS011;10104;50.732;10.174;2024-02-16T10:17:08;5.20;;;3.30;;
19883;SDS011;10104;50.732;10.174;2024-02-16T10:19:56;2.92;;;2.38;;
19883;SDS011;10104;50.732;10.174;2024-02-16T10:22:37;3.72;;;3.00;;
19883;SDS011;10104;50.732;10.174;2024-02-16T10:25:20;5.68;;;3.42;;
19883;SDS011;10104;50.732;10.174;2024-02-16T10:28:03;4.50;;;3.30;;
19883;SDS011;10104;50.732;10.174;2024-02-16T10:30:47;4.40;;;3.33;;
19883;SDS011;10104;50.732;10.174;2024-02-16T10:33:28;4.13;;;3.33;;
19883;SDS011;10104;50.732;10.174;2024-02-16T10:36:10;6.63;;;3.85;;
19883;SDS011;10104;50.732;10.174;2024-02-16T10:38:51;5.80;;;4.03;;
19883;SDS011;10104;50.732;10.174;2024-02-16T10:41:34;6.28;;;3.40;;
19883;SDS011;10104;50.732;10.174;2024-02-16T10:44:15;4.47;;;3.22;;
19883;SDS011;10104;50.732;10.174;2024-02-16T10:46:56;4.95;;;3.17;;
19883;SDS011;10104;50.732;10.174;2024-02-16T10:49:36;4.68;;;2.85;;
19883;SDS011;10104;50.732;10.174;2024-02-16T10:52:17;3.25;;;2.83;;
19883;SDS011;10104;50.732;10.174;2024-02-16T10:54:58;5.15;;;3.47;;
19883;SDS011;10104;50.732;10.174;2024-02-16T10:57:39;2.75;;;2.30;;
19883;SDS011;10104;50.732;10.174;2024-02-16T11:00:20;4.40;;;3.03;;
19883;SDS011;10104;50.732;10.174;2024-02-16T11:03:01;4.45;;;2.80;;
19883;SDS011;10104;50.732;10.174;2024-02-16T11:05:43;4.03;;;3.38;;
19883;SDS011;10104;50.732;10.174;2024-02-16T11:08:26;4.38;;;2.40;;
19883;SDS011;10104;50.732;10.174;2024-02-16T11:11:07;7.28;;;3.17;;
19883;SDS011;10104;50.732;10.174;2024-02-16T11:13:54;3.45;;;2.03;;
19883;SDS011;10104;50.732;10.174;2024-02-16T11:16:43;3.05;;;2.15;;
19883;SDS011;10104;50.732;10.174;2024-02-16T11:19:24;3.33;;;2.40;;
19883;SDS011;10104;50.732;10.174;2024-02-16T11:22:05;4.45;;;2.95;;
19883;SDS011;10104;50.732;10.174;2024-02-16T11:24:49;5.95;;;3.30;;
19883;SDS011;10104;50.732;10.174;2024-02-16T11:27:34;3.28;;;2.22;;
19883;SDS011;10104;50.732;10.174;2024-02-16T11:30:15;4.78;;;2.00;;
19883;SDS011;10104;50.732;10.174;2024-02-16T11:32:55;5.10;;;3.30;;
19883;SDS011;10104;50.732;10.174;2024-02-16T11:35:35;4.25;;;3.15;;
19883;SDS011;10104;50.732;10.174;2024-02-16T11:38:15;3.65;;;2.78;;
19883;SDS011;10104;50.732;10.174;2024-02-16T11:40:58;4.43;;;2.53;;
19883;SDS011;10104;50.732;10.174;2024-02-16T11:43:48;3.28;;;2.15;;
19883;SDS011;10104;50.732;10.174;2024-02-16T11:46:28;4.35;;;2.78;;
19883;SDS011;10104;50.732;10.174;2024-02-16T11:49:08;3.20;;;2.00;;
19883;SDS011;10104;50.732;10.174;2024-02-16T11:51:50;3.42;;;2.28;;
19883;SDS011;10104;50.732;10.174;2024-02-16T11:54:30;5.47;;;2.35;;
19883;SDS011;10104;50.732;10.174;2024-02-16T11:57:11;5.25;;;2.25;;
19883;SDS011;10104;50.732;10.174;2024-02-16T11:59:52;2.85;;;1.90;;
19883;SDS011;10104;50.732;10.174;2024-02-16T12:02:36;2.85;;;2.28;;
19883;SDS011;10104;50.732;10.174;2024-02-16T12:05:17;4.07;;;2.47;;
19883;SDS011;10104;50.732;10.174;2024-02-16T12:07:57;5.55;;;2.83;;
19883;SDS011;10104;50.732;10.174;2024-02-16T12:10:38;4.47;;;3.35;;
19883;SDS011;10104;50.732;10.174;2024-02-16T12:13:18;4.15;;;2.90;;
19883;SDS011;10104;50.732;10.174;2024-02-16T12:16:01;5.53;;;3.13;;
19883;SDS011;10104;50.732;10.174;2024-02-16T12:18:41;5.28;;;3.45;;
19883;SDS011;10104;50.732;10.174;2024-02-16T12:21:22;3.65;;;2.92;;
19883;SDS011;10104;50.732;10.174;2024-02-16T12:24:02;4.15;;;3.00;;
19883;SDS011;10104;50.732;10.174;2024-02-16T12:26:43;4.45;;;2.90;;
19883;SDS011;10104;50.732;10.174;2024-02-16T12:29:23;3.83;;;2.90;;
19883;SDS011;10104;50.732;10.174;2024-02-16T12:32:03;6.13;;;3.30;;
19883;SDS011;10104;50.732;10.174;2024-02-16T12:34:43;4.32;;;2.90;;
19883;SDS011;10104;50.732;10.174;2024-02-16T12:37:24;5.55;;;3.08;;
19883;SDS011;10104;50.732;10.174;2024-02-16T12:40:04;4.70;;;2.92;;
19883;SDS011;10104;50.732;10.174;2024-02-16T12:42:47;5.00;;;3.30;;
19883;SDS011;10104;50.732;10.174;2024-02-16T12:45:28;4.35;;;2.80;;
19883;SDS011;10104;50.732;10.174;2024-02-16T12:48:08;5.07;;;2.20;;
19883;SDS011;10104;50.732;10.174;2024-02-16T12:50:54;7.88;;;2.33;;
19883;SDS011;10104;50.732;10.174;2024-02-16T12:53:34;5.35;;;2.25;;
19883;SDS011;10104;50.732;10.174;2024-02-16T12:56:20;3.38;;;1.90;;
19883;SDS011;10104;50.732;10.174;2024-02-16T12:59:01;7.53;;;2.88;;
19883;SDS011;10104;50.732;10.174;2024-02-16T13:01:42;4.85;;;2.13;;
19883;SDS011;10104;50.732;10.174;2024-02-16T13:04:23;6.18;;;2.60;;
19883;SDS011;10104;50.732;10.174;2024-02-16T13:07:03;4.13;;;2.33;;
19883;SDS011;10104;50.732;10.174;2024-02-16T13:09:44;3.65;;;2.08;;
19883;SDS011;10104;50.732;10.174;2024-02-16T13:12:25;3.00;;;2.22;;
19883;SDS011;10104;50.732;10.174;2024-02-16T13:15:05;3.13;;;2.53;;
19883;SDS011;10104;50.732;10.174;2024-02-16T13:18:05;3.92;;;2.20;;
19883;SDS011;10104;50.732;10.174;2024-02-16T13:20:46;3.90;;;2.20;;
19883;SDS011;10104;50.732;10.174;2024-02-16T13:23:27;3.08;;;2.25;;
19883;SDS011;10104;50.732;10.174;2024-02-16T13:26:08;4.60;;;2.38;;
19883;SDS011;10104;50.732;10.174;2024-02-16T13:28:48;3.97;;;2.20;;
19883;SDS011;10104;50.732;10.174;2024-02-16T13:31:30;4.28;;;2.30;;
19883;SDS011;10104;50.732;10.174;2024-02-16T13:34:12;5.70;;;2.50;;
19883;SDS011;10104;50.732;10.174;2024-02-16T13:36:53;2.63;;;1.98;;
19883;SDS011;10104;50.732;10.174;2024-02-16T13:39:33;3.90;;;2.10;;
19883;SDS011;10104;50.732;10.174;2024-02-16T13:42:13;3.08;;;2.30;;
19883;SDS011;10104;50.732;10.174;2024-02-16T13:44:54;3.33;;;2.05;;
19883;SDS011;10104;50.732;10.174;2024-02-16T13:47:34;6.63;;;2.75;;
19883;SDS011;10104;50.732;10.174;2024-02-16T13:50:15;6.18;;;2.90;;
19883;SDS011;10104;50.732;10.174;2024-02-16T13:52:56;7.22;;;2.80;;
19883;SDS011;10104;50.732;10.174;2024-02-16T13:55:36;4.03;;;2.35;;
19883;SDS011;10104;50.732;10.174;2024-02-16T13:58:16;3.25;;;2.13;;
19883;SDS011;10104;50.732;10.174;2024-02-16T14:00:57;3.65;;;2.17;;
19883;SDS011;10104;50.732;10.174;2024-02-16T14:03:38;4.95;;;2.75;;
19883;SDS011;10104;50.732;10.174;2024-02-16T14:06:19;4.57;;;2.65;;
19883;SDS011;10104;50.732;10.174;2024-02-16T14:08:59;5.20;;;2.30;;
19883;SDS011;10104;50.732;10.174;2024-02-16T14:11:40;6.00;;;2.40;;
19883;SDS011;10104;50.732;10.174;2024-02-16T14:14:23;4.80;;;2.47;;
19883;SDS011;10104;50.732;10.174;2024-02-16T14:17:16;3.92;;;2.22;;
19883;SDS011;10104;50.732;10.174;2024-02-16T14:19:56;6.63;;;3.03;;
19883;SDS011;10104;50.732;10.174;2024-02-16T14:22:36;5.57;;;2.50;;
19883;SDS011;10104;50.732;10.174;2024-02-16T14:25:16;3.25;;;1.77;;
19883;SDS011;10104;50.732;10.174;2024-02-16T14:27:58;5.05;;;2.25;;
19883;SDS011;10104;50.732;10.174;2024-02-16T14:30:38;6.28;;;2.58;;
19883;SDS011;10104;50.732;10.174;2024-02-16T14:33:20;6.82;;;2.63;;
19883;SDS011;10104;50.732;10.174;2024-02-16T14:36:12;5.07;;;2.05;;
19883;SDS011;10104;50.732;10.174;2024-02-16T14:38:53;6.22;;;2.50;;
19883;SDS011;10104;50.732;10.174;2024-02-16T14:41:34;6.22;;;2.67;;
19883;SDS011;10104;50.732;10.174;2024-02-16T14:44:14;4.30;;;2.38;;
19883;SDS011;10104;50.732;10.174;2024-02-16T14:46:54;5.35;;;2.22;;
19883;SDS011;10104;50.732;10.174;2024-02-16T14:49:34;7.03;;;2.55;;
19883;SDS011;10104;50.732;10.174;2024-02-16T14:52:16;6.05;;;2.70;;
19883;SDS011;10104;50.732;10.174;2024-02-16T14:54:57;5.07;;;2.15;;
19883;SDS011;10104;50.732;10.174;2024-02-16T14:57:37;5.80;;;2.38;;
19883;SDS011;10104;50.732;10.174;2024-02-16T15:00:18;5.53;;;2.42;;
19883;SDS011;10104;50.732;10.174;2024-02-16T15:02:59;5.90;;;3.00;;
19883;SDS011;10104;50.732;10.174;2024-02-16T15:05:39;4.68;;;2.20;;
19883;SDS011;10104;50.732;10.174;2024-02-16T15:08:21;11.48;;;2.63;;
19883;SDS011;10104;50.732;10.174;2024-02-16T15:11:01;6.72;;;2.17;;
19883;SDS011;10104;50.732;10.174;2024-02-16T15:13:41;6.05;;;2.50;;
19883;SDS011;10104;50.732;10.174;2024-02-16T15:16:22;5.93;;;2.53;;
19883;SDS011;10104;50.732;10.174;2024-02-16T15:19:03;10.10;;;2.30;;
19883;SDS011;10104;50.732;10.174;2024-02-16T15:21:44;6.50;;;2.17;;
19883;SDS011;10104;50.732;10.174;2024-02-16T15:24:24;9.02;;;2.63;;
19883;SDS011;10104;50.732;10.174;2024-02-16T15:27:05;3.78;;;1.85;;
19883;SDS011;10104;50.732;10.174;2024-02-16T15:29:46;4.18;;;2.28;;
19883;SDS011;10104;50.732;10.174;2024-02-16T15:32:26;6.32;;;2.53;;
19883;SDS011;10104;50.732;10.174;2024-02-16T15:35:06;6.20;;;2.25;;
19883;SDS011;10104;50.732;10.174;2024-02-16T15:37:47;6.40;;;2.42;;
19883;SDS011;10104;50.732;10.174;2024-02-16T15:40:27;6.65;;;2.63;;
19883;SDS011;10104;50.732;10.174;2024-02-16T15:43:07;10.73;;;2.53;;
19883;SDS011;10104;50.732;10.174;2024-02-16T15:45:50;7.05;;;2.65;;
19883;SDS011;10104;50.732;10.174;2024-02-16T15:48:32;5.93;;;2.65;;
19883;SDS011;10104;50.732;10.174;2024-02-16T15:51:13;6.30;;;2.67;;
19883;SDS011;10104;50.732;10.174;2024-02-16T15:53:53;5.45;;;2.20;;
19883;SDS011;10104;50.732;10.174;2024-02-16T15:56:34;5.95;;;2.58;;